AIRPORT ID: KVKX

DATE: 2024-05-27 ZULU TIME: 21.35 LOCAL TIME: 17.35


METAR KVKX 272135Z AUTO 23005KT 10SM 27/23 A2969

ALTIMETER: A2969 Q1005

DENSITY ALT: 1600 Ft

WIND DIRECT: 220

WIND SPEED: 5 Gust

WIND CONDITIONS:

VISIBILTY: 10SM 9999M

TEMPERATURE: 80 F 27 C

DEW POINT: 73 F 23 C

HUMID: 79%

LCL: 1,000-3,000 feet

RADIO CHECK: 0

ADVISARIES: 0

GREETINGS: 0

CONVERSATIONS: 0